sensor_id;sensor_type;location;lat;lon;timestamp;temperature;humidity
55119;DHT22;41309;44.772;11.284;2022-10-31T00:01:15;17.10;88.20
55119;DHT22;41309;44.772;11.284;2022-10-31T00:03:42;17.10;88.30
55119;DHT22;41309;44.772;11.284;2022-10-31T00:06:08;17.00;88.20
55119;DHT22;41309;44.772;11.284;2022-10-31T00:08:33;17.10;88.20
55119;DHT22;41309;44.772;11.284;2022-10-31T00:10:59;17.10;88.00
55119;DHT22;41309;44.772;11.284;2022-10-31T00:13:25;17.10;88.00
55119;DHT22;41309;44.772;11.284;2022-10-31T00:15:51;17.10;87.90
55119;DHT22;41309;44.772;11.284;2022-10-31T00:18:17;17.00;87.90
55119;DHT22;41309;44.772;11.284;2022-10-31T00:20:42;17.00;88.00
55119;DHT22;41309;44.772;11.284;2022-10-31T00:23:09;16.90;88.10
55119;DHT22;41309;44.772;11.284;2022-10-31T00:25:38;16.90;88.30
55119;DHT22;41309;44.772;11.284;2022-10-31T00:28:05;16.90;88.30
55119;DHT22;41309;44.772;11.284;2022-10-31T00:30:32;16.90;88.30
55119;DHT22;41309;44.772;11.284;2022-10-31T00:32:57;17.00;88.30
55119;DHT22;41309;44.772;11.284;2022-10-31T00:35:23;16.90;88.30
55119;DHT22;41309;44.772;11.284;2022-10-31T00:37:49;17.00;88.20
55119;DHT22;41309;44.772;11.284;2022-10-31T00:40:15;16.90;88.20
55119;DHT22;41309;44.772;11.284;2022-10-31T00:42:41;16.90;88.30
55119;DHT22;41309;44.772;11.284;2022-10-31T00:45:10;16.80;88.20
55119;DHT22;41309;44.772;11.284;2022-10-31T00:47:36;16.80;88.30
55119;DHT22;41309;44.772;11.284;2022-10-31T00:50:04;16.80;88.20
55119;DHT22;41309;44.772;11.284;2022-10-31T00:52:30;16.80;88.20
55119;DHT22;41309;44.772;11.284;2022-10-31T00:54:56;16.80;88.30
55119;DHT22;41309;44.772;11.284;2022-10-31T00:57:22;16.70;88.40
55119;DHT22;41309;44.772;11.284;2022-10-31T00:59:47;16.70;88.50
55119;DHT22;41309;44.772;11.284;2022-10-31T01:02:13;16.70;88.60
55119;DHT22;41309;44.772;11.284;2022-10-31T01:04:39;16.60;88.70
55119;DHT22;41309;44.772;11.284;2022-10-31T01:07:05;16.60;88.80
55119;DHT22;41309;44.772;11.284;2022-10-31T01:09:30;16.60;88.70
55119;DHT22;41309;44.772;11.284;2022-10-31T01:11:56;16.60;88.70
55119;DHT22;41309;44.772;11.284;2022-10-31T01:14:22;16.60;88.80
55119;DHT22;41309;44.772;11.284;2022-10-31T01:16:47;16.60;88.90
55119;DHT22;41309;44.772;11.284;2022-10-31T01:19:13;16.50;88.80
55119;DHT22;41309;44.772;11.284;2022-10-31T01:21:39;16.50;88.80
55119;DHT22;41309;44.772;11.284;2022-10-31T01:24:05;16.60;88.80
55119;DHT22;41309;44.772;11.284;2022-10-31T01:26:32;16.60;88.80
55119;DHT22;41309;44.772;11.284;2022-10-31T01:29:03;16.50;88.70
55119;DHT22;41309;44.772;11.284;2022-10-31T01:31:32;16.50;88.70
55119;DHT22;41309;44.772;11.284;2022-10-31T01:33:58;16.50;88.60
55119;DHT22;41309;44.772;11.284;2022-10-31T01:36:32;16.50;88.60
55119;DHT22;41309;44.772;11.284;2022-10-31T01:39:01;16.50;88.60
55119;DHT22;41309;44.772;11.284;2022-10-31T01:41:31;16.50;88.60
55119;DHT22;41309;44.772;11.284;2022-10-31T01:43:59;16.50;88.60
55119;DHT22;41309;44.772;11.284;2022-10-31T01:46:37;16.50;88.60
55119;DHT22;41309;44.772;11.284;2022-10-31T01:49:13;16.50;88.50
55119;DHT22;41309;44.772;11.284;2022-10-31T01:51:45;16.50;88.40
55119;DHT22;41309;44.772;11.284;2022-10-31T01:54:15;16.50;88.40
55119;DHT22;41309;44.772;11.284;2022-10-31T01:56:43;16.40;88.40
55119;DHT22;41309;44.772;11.284;2022-10-31T01:59:12;16.40;88.60
55119;DHT22;41309;44.772;11.284;2022-10-31T02:01:40;16.30;88.70
55119;DHT22;41309;44.772;11.284;2022-10-31T02:04:06;16.20;88.80
55119;DHT22;41309;44.772;11.284;2022-10-31T02:09:05;16.30;89.00
55119;DHT22;41309;44.772;11.284;2022-10-31T02:11:33;16.20;88.90
55119;DHT22;41309;44.772;11.284;2022-10-31T02:14:02;16.20;89.00
55119;DHT22;41309;44.772;11.284;2022-10-31T02:16:28;16.20;89.20
55119;DHT22;41309;44.772;11.284;2022-10-31T02:18:54;16.20;89.20
55119;DHT22;41309;44.772;11.284;2022-10-31T02:27:20;16.10;89.30
55119;DHT22;41309;44.772;11.284;2022-10-31T02:30:06;16.00;89.30
55119;DHT22;41309;44.772;11.284;2022-10-31T02:32:42;16.00;89.70
55119;DHT22;41309;44.772;11.284;2022-10-31T02:35:10;16.00;89.60
55119;DHT22;41309;44.772;11.284;2022-10-31T02:37:47;16.10;89.70
55119;DHT22;41309;44.772;11.284;2022-10-31T02:40:27;16.10;89.70
55119;DHT22;41309;44.772;11.284;2022-10-31T02:43:03;16.00;89.70
55119;DHT22;41309;44.772;11.284;2022-10-31T02:45:43;16.00;89.70
55119;DHT22;41309;44.772;11.284;2022-10-31T02:48:14;16.00;89.90
55119;DHT22;41309;44.772;11.284;2022-10-31T02:50:58;16.00;90.00
55119;DHT22;41309;44.772;11.284;2022-10-31T02:53:25;16.00;90.00
55119;DHT22;41309;44.772;11.284;2022-10-31T02:56:13;16.00;89.90
55119;DHT22;41309;44.772;11.284;2022-10-31T02:58:47;16.00;89.80
55119;DHT22;41309;44.772;11.284;2022-10-31T03:04:31;16.00;89.90
55119;DHT22;41309;44.772;11.284;2022-10-31T03:07:08;15.90;89.90
55119;DHT22;41309;44.772;11.284;2022-10-31T03:15:22;15.90;90.00
55119;DHT22;41309;44.772;11.284;2022-10-31T03:21:11;15.90;90.00
55119;DHT22;41309;44.772;11.284;2022-10-31T03:23:39;15.80;90.00
55119;DHT22;41309;44.772;11.284;2022-10-31T03:26:08;15.80;90.00
55119;DHT22;41309;44.772;11.284;2022-10-31T03:28:45;15.70;90.00
55119;DHT22;41309;44.772;11.284;2022-10-31T03:31:13;15.70;90.00
55119;DHT22;41309;44.772;11.284;2022-10-31T03:33:42;15.70;90.00
55119;DHT22;41309;44.772;11.284;2022-10-31T03:36:10;15.70;90.10
55119;DHT22;41309;44.772;11.284;2022-10-31T03:38:38;15.70;90.10
55119;DHT22;41309;44.772;11.284;2022-10-31T03:41:11;15.70;90.10
55119;DHT22;41309;44.772;11.284;2022-10-31T03:43:41;15.60;90.10
55119;DHT22;41309;44.772;11.284;2022-10-31T03:46:08;15.60;90.10
55119;DHT22;41309;44.772;11.284;2022-10-31T03:48:34;15.60;90.20
55119;DHT22;41309;44.772;11.284;2022-10-31T03:53:37;15.50;90.20
55119;DHT22;41309;44.772;11.284;2022-10-31T03:56:18;15.40;90.20
55119;DHT22;41309;44.772;11.284;2022-10-31T03:59:03;15.40;90.30
55119;DHT22;41309;44.772;11.284;2022-10-31T04:01:33;15.40;90.30
55119;DHT22;41309;44.772;11.284;2022-10-31T04:04:00;15.40;90.30
55119;DHT22;41309;44.772;11.284;2022-10-31T04:06:27;15.40;90.30
55119;DHT22;41309;44.772;11.284;2022-10-31T04:08:59;15.30;90.40
55119;DHT22;41309;44.772;11.284;2022-10-31T04:11:29;15.40;90.40
55119;DHT22;41309;44.772;11.284;2022-10-31T04:13:57;15.40;90.40
55119;DHT22;41309;44.772;11.284;2022-10-31T04:16:24;15.40;90.30
55119;DHT22;41309;44.772;11.284;2022-10-31T04:18:50;15.40;90.30
55119;DHT22;41309;44.772;11.284;2022-10-31T04:21:16;15.40;90.30
55119;DHT22;41309;44.772;11.284;2022-10-31T04:23:42;15.30;90.30
55119;DHT22;41309;44.772;11.284;2022-10-31T04:26:11;15.30;90.30
55119;DHT22;41309;44.772;11.284;2022-10-31T04:28:37;15.30;90.40
55119;DHT22;41309;44.772;11.284;2022-10-31T04:31:03;15.20;90.40
55119;DHT22;41309;44.772;11.284;2022-10-31T04:33:29;15.30;90.40
55119;DHT22;41309;44.772;11.284;2022-10-31T04:35:55;15.20;90.40
55119;DHT22;41309;44.772;11.284;2022-10-31T04:38:21;15.20;90.50
55119;DHT22;41309;44.772;11.284;2022-10-31T04:40:47;15.20;90.50
55119;DHT22;41309;44.772;11.284;2022-10-31T04:43:14;15.20;90.40
55119;DHT22;41309;44.772;11.284;2022-10-31T04:45:40;15.20;90.40
55119;DHT22;41309;44.772;11.284;2022-10-31T04:48:05;15.20;90.50
55119;DHT22;41309;44.772;11.284;2022-10-31T04:50:31;15.20;90.50
55119;DHT22;41309;44.772;11.284;2022-10-31T04:52:57;15.20;90.50
55119;DHT22;41309;44.772;11.284;2022-10-31T04:55:23;15.10;90.50
55119;DHT22;41309;44.772;11.284;2022-10-31T04:57:49;15.10;90.50
55119;DHT22;41309;44.772;11.284;2022-10-31T05:00:18;15.10;90.50
55119;DHT22;41309;44.772;11.284;2022-10-31T05:02:49;15.10;90.50
55119;DHT22;41309;44.772;11.284;2022-10-31T05:05:16;15.10;90.50
55119;DHT22;41309;44.772;11.284;2022-10-31T05:07:43;15.10;90.40
55119;DHT22;41309;44.772;11.284;2022-10-31T05:10:11;15.10;90.40
55119;DHT22;41309;44.772;11.284;2022-10-31T05:12:38;15.10;90.40
55119;DHT22;41309;44.772;11.284;2022-10-31T05:15:05;15.10;90.30
55119;DHT22;41309;44.772;11.284;2022-10-31T05:17:31;15.00;90.30
55119;DHT22;41309;44.772;11.284;2022-10-31T05:19:57;15.00;90.30
55119;DHT22;41309;44.772;11.284;2022-10-31T05:22:23;15.00;90.30
55119;DHT22;41309;44.772;11.284;2022-10-31T05:24:49;15.00;90.20
55119;DHT22;41309;44.772;11.284;2022-10-31T05:27:14;15.00;90.20
55119;DHT22;41309;44.772;11.284;2022-10-31T05:29:40;14.90;90.30
55119;DHT22;41309;44.772;11.284;2022-10-31T05:32:06;14.90;90.20
55119;DHT22;41309;44.772;11.284;2022-10-31T05:34:32;14.90;90.20
55119;DHT22;41309;44.772;11.284;2022-10-31T05:36:57;15.00;90.10
55119;DHT22;41309;44.772;11.284;2022-10-31T05:39:23;15.00;90.00
55119;DHT22;41309;44.772;11.284;2022-10-31T05:41:49;15.00;90.00
55119;DHT22;41309;44.772;11.284;2022-10-31T05:44:14;15.00;90.00
55119;DHT22;41309;44.772;11.284;2022-10-31T05:46:40;15.00;90.00
55119;DHT22;41309;44.772;11.284;2022-10-31T05:49:06;14.90;89.90
55119;DHT22;41309;44.772;11.284;2022-10-31T05:51:32;14.90;89.90
55119;DHT22;41309;44.772;11.284;2022-10-31T05:53:57;14.90;89.80
55119;DHT22;41309;44.772;11.284;2022-10-31T05:56:23;14.90;89.70
55119;DHT22;41309;44.772;11.284;2022-10-31T05:58:49;14.80;89.70
55119;DHT22;41309;44.772;11.284;2022-10-31T06:01:15;14.80;89.80
55119;DHT22;41309;44.772;11.284;2022-10-31T06:03:40;14.80;89.90
55119;DHT22;41309;44.772;11.284;2022-10-31T06:06:07;14.80;89.80
55119;DHT22;41309;44.772;11.284;2022-10-31T06:08:32;14.80;89.80
55119;DHT22;41309;44.772;11.284;2022-10-31T06:10:58;14.90;89.70
55119;DHT22;41309;44.772;11.284;2022-10-31T06:13:24;14.90;89.50
55119;DHT22;41309;44.772;11.284;2022-10-31T06:15:50;15.00;89.30
55119;DHT22;41309;44.772;11.284;2022-10-31T06:18:15;15.10;89.20
55119;DHT22;41309;44.772;11.284;2022-10-31T06:20:41;15.10;89.10
55119;DHT22;41309;44.772;11.284;2022-10-31T06:23:07;15.00;89.00
55119;DHT22;41309;44.772;11.284;2022-10-31T06:25:33;15.10;88.90
55119;DHT22;41309;44.772;11.284;2022-10-31T06:27:59;15.10;88.80
55119;DHT22;41309;44.772;11.284;2022-10-31T06:30:25;15.10;88.60
55119;DHT22;41309;44.772;11.284;2022-10-31T06:32:51;15.10;88.50
55119;DHT22;41309;44.772;11.284;2022-10-31T06:35:17;15.10;88.50
55119;DHT22;41309;44.772;11.284;2022-10-31T06:37:51;15.10;88.40
55119;DHT22;41309;44.772;11.284;2022-10-31T06:40:16;15.10;88.30
55119;DHT22;41309;44.772;11.284;2022-10-31T06:42:42;15.20;88.40
55119;DHT22;41309;44.772;11.284;2022-10-31T06:45:08;15.30;88.40
55119;DHT22;41309;44.772;11.284;2022-10-31T06:47:34;15.30;88.30
55119;DHT22;41309;44.772;11.284;2022-10-31T06:50:00;15.30;88.20
55119;DHT22;41309;44.772;11.284;2022-10-31T06:52:25;15.40;88.20
55119;DHT22;41309;44.772;11.284;2022-10-31T06:54:51;15.50;88.10
55119;DHT22;41309;44.772;11.284;2022-10-31T06:57:17;15.50;88.00
55119;DHT22;41309;44.772;11.284;2022-10-31T06:59:42;15.70;88.00
55119;DHT22;41309;44.772;11.284;2022-10-31T07:02:12;15.70;87.70
55119;DHT22;41309;44.772;11.284;2022-10-31T07:04:38;15.90;87.60
55119;DHT22;41309;44.772;11.284;2022-10-31T07:07:03;15.90;87.40
55119;DHT22;41309;44.772;11.284;2022-10-31T07:09:29;16.10;87.30
55119;DHT22;41309;44.772;11.284;2022-10-31T07:11:55;16.10;87.20
55119;DHT22;41309;44.772;11.284;2022-10-31T07:14:21;16.20;87.50
55119;DHT22;41309;44.772;11.284;2022-10-31T07:16:50;16.30;87.10
55119;DHT22;41309;44.772;11.284;2022-10-31T07:19:16;16.40;87.10
55119;DHT22;41309;44.772;11.284;2022-10-31T07:21:42;16.40;87.00
55119;DHT22;41309;44.772;11.284;2022-10-31T07:24:08;16.50;87.00
55119;DHT22;41309;44.772;11.284;2022-10-31T07:26:34;16.60;86.80
55119;DHT22;41309;44.772;11.284;2022-10-31T07:29:00;16.60;86.50
55119;DHT22;41309;44.772;11.284;2022-10-31T07:31:25;16.70;86.50
55119;DHT22;41309;44.772;11.284;2022-10-31T07:33:51;16.80;86.60
55119;DHT22;41309;44.772;11.284;2022-10-31T07:36:17;16.80;86.50
55119;DHT22;41309;44.772;11.284;2022-10-31T07:38:43;16.90;86.50
55119;DHT22;41309;44.772;11.284;2022-10-31T07:41:08;17.00;86.50
55119;DHT22;41309;44.772;11.284;2022-10-31T07:43:35;17.10;86.50
55119;DHT22;41309;44.772;11.284;2022-10-31T07:46:00;17.20;86.30
55119;DHT22;41309;44.772;11.284;2022-10-31T07:48:26;17.30;86.00
55119;DHT22;41309;44.772;11.284;2022-10-31T07:50:52;17.40;85.70
55119;DHT22;41309;44.772;11.284;2022-10-31T07:53:18;17.50;85.60
55119;DHT22;41309;44.772;11.284;2022-10-31T07:55:43;17.60;85.40
55119;DHT22;41309;44.772;11.284;2022-10-31T07:58:14;17.80;85.30
55119;DHT22;41309;44.772;11.284;2022-10-31T08:00:42;18.00;85.30
55119;DHT22;41309;44.772;11.284;2022-10-31T08:03:15;18.10;85.20
55119;DHT22;41309;44.772;11.284;2022-10-31T08:05:42;18.30;85.00
55119;DHT22;41309;44.772;11.284;2022-10-31T08:08:08;18.50;84.90
55119;DHT22;41309;44.772;11.284;2022-10-31T08:10:34;18.60;84.70
55119;DHT22;41309;44.772;11.284;2022-10-31T08:13:05;18.80;84.70
55119;DHT22;41309;44.772;11.284;2022-10-31T08:15:31;19.00;84.00
55119;DHT22;41309;44.772;11.284;2022-10-31T08:17:57;19.20;83.80
55119;DHT22;41309;44.772;11.284;2022-10-31T08:20:23;19.30;83.50
55119;DHT22;41309;44.772;11.284;2022-10-31T08:23:00;19.50;83.30
55119;DHT22;41309;44.772;11.284;2022-10-31T08:25:28;19.70;83.20
55119;DHT22;41309;44.772;11.284;2022-10-31T08:27:55;19.80;83.00
55119;DHT22;41309;44.772;11.284;2022-10-31T08:30:23;20.10;82.80
55119;DHT22;41309;44.772;11.284;2022-10-31T08:33:08;20.20;82.70
55119;DHT22;41309;44.772;11.284;2022-10-31T08:35:34;20.40;82.40
55119;DHT22;41309;44.772;11.284;2022-10-31T08:38:00;20.50;82.30
55119;DHT22;41309;44.772;11.284;2022-10-31T08:40:27;20.70;82.20
55119;DHT22;41309;44.772;11.284;2022-10-31T08:45:23;21.00;81.80
55119;DHT22;41309;44.772;11.284;2022-10-31T08:47:49;21.10;81.50
55119;DHT22;41309;44.772;11.284;2022-10-31T08:50:15;21.20;81.50
55119;DHT22;41309;44.772;11.284;2022-10-31T08:52:41;21.40;81.40
55119;DHT22;41309;44.772;11.284;2022-10-31T08:55:07;21.50;81.30
55119;DHT22;41309;44.772;11.284;2022-10-31T08:57:32;21.60;81.10
55119;DHT22;41309;44.772;11.284;2022-10-31T08:59:58;21.80;80.80
55119;DHT22;41309;44.772;11.284;2022-10-31T09:02:24;21.90;80.60
55119;DHT22;41309;44.772;11.284;2022-10-31T09:04:50;22.00;80.40
55119;DHT22;41309;44.772;11.284;2022-10-31T09:07:15;22.10;80.30
55119;DHT22;41309;44.772;11.284;2022-10-31T09:09:41;22.30;80.20
55119;DHT22;41309;44.772;11.284;2022-10-31T09:12:07;22.50;80.20
55119;DHT22;41309;44.772;11.284;2022-10-31T09:14:32;22.60;79.80
55119;DHT22;41309;44.772;11.284;2022-10-31T09:16:58;22.80;79.50
55119;DHT22;41309;44.772;11.284;2022-10-31T09:19:24;22.90;79.00
55119;DHT22;41309;44.772;11.284;2022-10-31T09:21:53;23.10;78.80
55119;DHT22;41309;44.772;11.284;2022-10-31T09:24:19;23.20;78.40
55119;DHT22;41309;44.772;11.284;2022-10-31T09:26:45;23.40;78.00
55119;DHT22;41309;44.772;11.284;2022-10-31T09:29:11;23.60;77.80
55119;DHT22;41309;44.772;11.284;2022-10-31T09:31:37;23.80;77.40
55119;DHT22;41309;44.772;11.284;2022-10-31T09:34:03;24.00;76.90
55119;DHT22;41309;44.772;11.284;2022-10-31T09:36:28;24.10;76.70
55119;DHT22;41309;44.772;11.284;2022-10-31T09:38:54;24.30;76.10
55119;DHT22;41309;44.772;11.284;2022-10-31T09:42:06;24.50;75.60
55119;DHT22;41309;44.772;11.284;2022-10-31T09:44:46;24.70;74.70
55119;DHT22;41309;44.772;11.284;2022-10-31T09:47:40;24.90;73.70
55119;DHT22;41309;44.772;11.284;2022-10-31T09:50:55;25.10;73.40
55119;DHT22;41309;44.772;11.284;2022-10-31T09:56:15;25.70;72.20
55119;DHT22;41309;44.772;11.284;2022-10-31T09:58:47;25.90;71.30
55119;DHT22;41309;44.772;11.284;2022-10-31T10:04:00;26.20;69.60
55119;DHT22;41309;44.772;11.284;2022-10-31T10:06:34;26.40;69.30
55119;DHT22;41309;44.772;11.284;2022-10-31T10:09:01;26.50;68.10
55119;DHT22;41309;44.772;11.284;2022-10-31T10:17:17;26.90;67.20
55119;DHT22;41309;44.772;11.284;2022-10-31T10:20:03;27.20;66.30
55119;DHT22;41309;44.772;11.284;2022-10-31T10:22:46;27.60;65.80
55119;DHT22;41309;44.772;11.284;2022-10-31T10:25:23;28.00;64.40
55119;DHT22;41309;44.772;11.284;2022-10-31T10:31:16;28.50;61.60
55119;DHT22;41309;44.772;11.284;2022-10-31T10:33:47;28.70;60.60
55119;DHT22;41309;44.772;11.284;2022-10-31T10:36:21;28.90;61.00
55119;DHT22;41309;44.772;11.284;2022-10-31T10:41:18;29.20;59.20
55119;DHT22;41309;44.772;11.284;2022-10-31T10:43:45;29.40;58.50
55119;DHT22;41309;44.772;11.284;2022-10-31T10:51:46;29.70;57.20
55119;DHT22;41309;44.772;11.284;2022-10-31T10:59:38;30.30;55.70
55119;DHT22;41309;44.772;11.284;2022-10-31T11:02:08;30.60;55.30
55119;DHT22;41309;44.772;11.284;2022-10-31T11:04:40;31.00;54.60
55119;DHT22;41309;44.772;11.284;2022-10-31T11:07:11;31.20;53.90
55119;DHT22;41309;44.772;11.284;2022-10-31T11:09:37;31.60;53.30
55119;DHT22;41309;44.772;11.284;2022-10-31T11:12:16;31.90;52.60
55119;DHT22;41309;44.772;11.284;2022-10-31T11:14:51;32.10;51.70
55119;DHT22;41309;44.772;11.284;2022-10-31T11:22:37;32.70;49.60
55119;DHT22;41309;44.772;11.284;2022-10-31T11:25:26;32.80;49.30
55119;DHT22;41309;44.772;11.284;2022-10-31T11:28:03;32.80;48.90
55119;DHT22;41309;44.772;11.284;2022-10-31T11:30:30;32.90;48.50
55119;DHT22;41309;44.772;11.284;2022-10-31T11:33:00;33.00;48.10
55119;DHT22;41309;44.772;11.284;2022-10-31T11:35:26;32.90;47.60
55119;DHT22;41309;44.772;11.284;2022-10-31T11:37:54;32.70;47.10
55119;DHT22;41309;44.772;11.284;2022-10-31T11:40:25;32.50;46.80
55119;DHT22;41309;44.772;11.284;2022-10-31T11:42:54;32.30;46.80
55119;DHT22;41309;44.772;11.284;2022-10-31T11:47:51;32.10;46.60
55119;DHT22;41309;44.772;11.284;2022-10-31T11:50:39;32.00;46.40
55119;DHT22;41309;44.772;11.284;2022-10-31T11:53:17;31.90;46.60
55119;DHT22;41309;44.772;11.284;2022-10-31T11:55:45;31.70;46.50
55119;DHT22;41309;44.772;11.284;2022-10-31T11:58:38;31.60;46.40
55119;DHT22;41309;44.772;11.284;2022-10-31T12:01:04;31.50;46.40
55119;DHT22;41309;44.772;11.284;2022-10-31T12:06:39;31.10;46.40
55119;DHT22;41309;44.772;11.284;2022-10-31T12:09:20;30.80;46.90
55119;DHT22;41309;44.772;11.284;2022-10-31T12:12:14;30.60;47.10
55119;DHT22;41309;44.772;11.284;2022-10-31T12:17:22;30.60;47.70
55119;DHT22;41309;44.772;11.284;2022-10-31T12:23:09;30.60;47.40
55119;DHT22;41309;44.772;11.284;2022-10-31T12:26:04;30.40;47.80
55119;DHT22;41309;44.772;11.284;2022-10-31T12:44:30;28.70;48.40
55119;DHT22;41309;44.772;11.284;2022-10-31T12:47:07;28.20;48.90
55119;DHT22;41309;44.772;11.284;2022-10-31T12:59:50;26.70;51.00
55119;DHT22;41309;44.772;11.284;2022-10-31T13:04:44;26.40;51.80
55119;DHT22;41309;44.772;11.284;2022-10-31T13:07:23;26.30;51.90
55119;DHT22;41309;44.772;11.284;2022-10-31T13:10:06;26.20;52.30
55119;DHT22;41309;44.772;11.284;2022-10-31T13:12:35;26.10;52.50
55119;DHT22;41309;44.772;11.284;2022-10-31T13:17:42;26.00;52.90
55119;DHT22;41309;44.772;11.284;2022-10-31T13:20:30;26.00;53.10
55119;DHT22;41309;44.772;11.284;2022-10-31T13:23:38;25.90;53.30
55119;DHT22;41309;44.772;11.284;2022-10-31T13:26:13;25.90;53.40
55119;DHT22;41309;44.772;11.284;2022-10-31T13:28:54;25.80;53.70
55119;DHT22;41309;44.772;11.284;2022-10-31T13:31:41;25.80;53.90
55119;DHT22;41309;44.772;11.284;2022-10-31T13:37:15;25.70;54.20
55119;DHT22;41309;44.772;11.284;2022-10-31T13:45:26;25.50;54.70
55119;DHT22;41309;44.772;11.284;2022-10-31T13:48:01;25.40;54.70
55119;DHT22;41309;44.772;11.284;2022-10-31T13:50:31;25.40;54.90
55119;DHT22;41309;44.772;11.284;2022-10-31T13:55:44;25.30;55.60
55119;DHT22;41309;44.772;11.284;2022-10-31T14:01:02;25.20;55.20
55119;DHT22;41309;44.772;11.284;2022-10-31T14:03:31;25.20;55.30
55119;DHT22;41309;44.772;11.284;2022-10-31T14:05:58;25.20;55.40
55119;DHT22;41309;44.772;11.284;2022-10-31T14:08:25;25.10;55.40
55119;DHT22;41309;44.772;11.284;2022-10-31T14:10:53;25.10;55.50
55119;DHT22;41309;44.772;11.284;2022-10-31T14:13:35;25.10;55.60
55119;DHT22;41309;44.772;11.284;2022-10-31T14:16:25;25.00;55.70
55119;DHT22;41309;44.772;11.284;2022-10-31T14:19:16;25.00;55.80
55119;DHT22;41309;44.772;11.284;2022-10-31T14:21:43;24.90;55.70
55119;DHT22;41309;44.772;11.284;2022-10-31T14:26:54;24.90;56.00
55119;DHT22;41309;44.772;11.284;2022-10-31T14:29:40;24.80;56.00
55119;DHT22;41309;44.772;11.284;2022-10-31T14:32:21;24.80;55.80
55119;DHT22;41309;44.772;11.284;2022-10-31T14:40:23;24.70;56.20
55119;DHT22;41309;44.772;11.284;2022-10-31T14:45:46;24.50;56.50
55119;DHT22;41309;44.772;11.284;2022-10-31T14:51:41;24.40;56.70
55119;DHT22;41309;44.772;11.284;2022-10-31T14:54:21;24.40;56.70
55119;DHT22;41309;44.772;11.284;2022-10-31T14:57:16;24.30;56.90
55119;DHT22;41309;44.772;11.284;2022-10-31T14:59:58;24.30;57.10
55119;DHT22;41309;44.772;11.284;2022-10-31T15:03:30;24.20;57.30
55119;DHT22;41309;44.772;11.284;2022-10-31T15:05:23;24.20;57.70
55119;DHT22;41309;44.772;11.284;2022-10-31T15:07:55;24.10;58.00
55119;DHT22;41309;44.772;11.284;2022-10-31T15:10:24;24.00;58.40
55119;DHT22;41309;44.772;11.284;2022-10-31T15:12:51;23.90;58.60
55119;DHT22;41309;44.772;11.284;2022-10-31T15:15:22;23.90;58.90
55119;DHT22;41309;44.772;11.284;2022-10-31T15:17:58;23.80;59.10
55119;DHT22;41309;44.772;11.284;2022-10-31T15:20:30;23.80;59.40
55119;DHT22;41309;44.772;11.284;2022-10-31T15:22:57;23.70;59.70
55119;DHT22;41309;44.772;11.284;2022-10-31T15:25:26;23.60;59.80
55119;DHT22;41309;44.772;11.284;2022-10-31T15:27:57;23.50;60.20
55119;DHT22;41309;44.772;11.284;2022-10-31T15:30:26;23.40;60.70
55119;DHT22;41309;44.772;11.284;2022-10-31T15:33:00;23.40;61.10
55119;DHT22;41309;44.772;11.284;2022-10-31T15:35:30;23.40;61.40
55119;DHT22;41309;44.772;11.284;2022-10-31T15:37:59;23.30;61.70
55119;DHT22;41309;44.772;11.284;2022-10-31T15:40:26;23.20;62.00
55119;DHT22;41309;44.772;11.284;2022-10-31T15:43:03;23.10;62.00
55119;DHT22;41309;44.772;11.284;2022-10-31T15:45:31;23.10;62.30
55119;DHT22;41309;44.772;11.284;2022-10-31T15:48:10;23.00;62.50
55119;DHT22;41309;44.772;11.284;2022-10-31T15:50:41;23.00;63.10
55119;DHT22;41309;44.772;11.284;2022-10-31T15:53:25;22.90;63.50
55119;DHT22;41309;44.772;11.284;2022-10-31T15:55:55;22.90;64.40
55119;DHT22;41309;44.772;11.284;2022-10-31T15:58:22;22.70;64.70
55119;DHT22;41309;44.772;11.284;2022-10-31T16:01:05;22.60;65.30
55119;DHT22;41309;44.772;11.284;2022-10-31T16:03:41;22.60;66.20
55119;DHT22;41309;44.772;11.284;2022-10-31T16:06:20;22.50;66.60
55119;DHT22;41309;44.772;11.284;2022-10-31T16:08:51;22.30;67.00
55119;DHT22;41309;44.772;11.284;2022-10-31T16:11:37;22.20;67.20
55119;DHT22;41309;44.772;11.284;2022-10-31T16:14:25;22.10;68.60
55119;DHT22;41309;44.772;11.284;2022-10-31T16:16:58;21.90;68.30
55119;DHT22;41309;44.772;11.284;2022-10-31T16:19:46;21.80;68.60
55119;DHT22;41309;44.772;11.284;2022-10-31T16:22:18;21.70;69.30
55119;DHT22;41309;44.772;11.284;2022-10-31T16:24:46;21.70;69.70
55119;DHT22;41309;44.772;11.284;2022-10-31T16:27:24;21.70;70.00
55119;DHT22;41309;44.772;11.284;2022-10-31T16:29:54;21.60;70.30
55119;DHT22;41309;44.772;11.284;2022-10-31T16:32:28;21.60;70.10
55119;DHT22;41309;44.772;11.284;2022-10-31T16:37:58;21.40;70.90
55119;DHT22;41309;44.772;11.284;2022-10-31T16:40:24;21.30;71.00
55119;DHT22;41309;44.772;11.284;2022-10-31T16:42:50;21.30;71.40
55119;DHT22;41309;44.772;11.284;2022-10-31T16:45:24;21.20;71.70
55119;DHT22;41309;44.772;11.284;2022-10-31T16:47:51;21.10;72.20
55119;DHT22;41309;44.772;11.284;2022-10-31T16:50:24;21.00;72.40
55119;DHT22;41309;44.772;11.284;2022-10-31T16:52:50;20.90;72.70
55119;DHT22;41309;44.772;11.284;2022-10-31T16:55:18;20.90;73.00
55119;DHT22;41309;44.772;11.284;2022-10-31T16:57:52;20.90;73.20
55119;DHT22;41309;44.772;11.284;2022-10-31T17:00:21;20.90;73.40
55119;DHT22;41309;44.772;11.284;2022-10-31T17:02:49;20.80;73.50
55119;DHT22;41309;44.772;11.284;2022-10-31T17:05:17;20.80;73.70
55119;DHT22;41309;44.772;11.284;2022-10-31T17:07:44;20.80;73.80
55119;DHT22;41309;44.772;11.284;2022-10-31T17:10:11;20.80;73.80
55119;DHT22;41309;44.772;11.284;2022-10-31T17:12:47;20.80;73.90
55119;DHT22;41309;44.772;11.284;2022-10-31T17:15:20;20.70;74.20
55119;DHT22;41309;44.772;11.284;2022-10-31T17:17:47;20.60;74.50
55119;DHT22;41309;44.772;11.284;2022-10-31T17:20:26;20.50;74.90
55119;DHT22;41309;44.772;11.284;2022-10-31T17:22:57;20.40;75.50
55119;DHT22;41309;44.772;11.284;2022-10-31T17:25:28;20.40;75.60
55119;DHT22;41309;44.772;11.284;2022-10-31T17:27:54;20.40;75.80
55119;DHT22;41309;44.772;11.284;2022-10-31T17:30:21;20.40;75.80
55119;DHT22;41309;44.772;11.284;2022-10-31T17:32:47;20.30;75.90
55119;DHT22;41309;44.772;11.284;2022-10-31T17:35:15;20.30;76.00
55119;DHT22;41309;44.772;11.284;2022-10-31T17:37:42;20.30;76.20
55119;DHT22;41309;44.772;11.284;2022-10-31T17:40:10;20.20;76.30
55119;DHT22;41309;44.772;11.284;2022-10-31T17:42:37;20.20;76.40
55119;DHT22;41309;44.772;11.284;2022-10-31T17:45:11;20.20;76.50
55119;DHT22;41309;44.772;11.284;2022-10-31T17:47:37;20.10;76.60